Decoded Metar for KBPK (MOUNTAIN HOME in AR, USA) (IATA:BPK) | Meteo·Mobile Aviation Weather
aviador You're here:

KBPK Decoded Metar

MOUNTAIN HOME in AR, USA
Report Time2018-09-22 10:53:00
UTC Time2018-09-22 11:12:47
Flight Rules vfr VFR
Wind070° at 08 kt
W.Decomp.*RWY 05: 7.7 kt HW 2.3 kt RCW
W.Rank070° ranks 17
Current wind is above 070° avg. (4.7)
Visibility9999 m
Phenomena:Light Rain
Clouds:Overcast 050 Hf
Ceiling5,000 ft
Temp14°C (ISA +1)
Dew Point14°C (100% RH)
AAT12.4°C
QNH1021 hPa
Density Alt965 ft
Elevation919 ft
Report Wrong Elevation
Raw Report
KBPK 221053Z AUTO 07008KT 7SM -RA OVC050 14/14 A3016 RMK AO2
SLP208 P0014 T01440144 TSNO=

Extra information for KBPK:More info

Metar Taf Metar & Taf Last 4 Metars F.Rules Stats Wind Profile Meteogram Temp Stats Airport Information Weather charts Add Link Nearby VenuesMetar ALERT Operation Metar Decoded Social comments

AIRNAV info for KBPK